createdAt,value
2023-01-19T05:02:36.940Z,1.98
2023-01-19T05:05:04.285Z,2.09
2023-01-19T05:07:31.088Z,2.15
2023-01-19T05:09:57.725Z,2.22
2023-01-19T05:12:24.231Z,2.29
2023-01-19T05:14:50.799Z,2.30
2023-01-19T05:17:17.357Z,2.38
2023-01-19T05:19:43.928Z,2.48
2023-01-19T05:22:10.704Z,2.61
2023-01-19T05:24:37.253Z,2.73
2023-01-19T05:27:03.948Z,2.92
2023-01-19T05:29:30.540Z,2.92
2023-01-19T05:31:58.150Z,3.01
2023-01-19T05:34:24.723Z,3.18
2023-01-19T05:36:51.557Z,3.40
2023-01-19T05:39:18.235Z,3.49
2023-01-19T05:41:45.582Z,3.56
2023-01-19T05:44:12.876Z,3.53
2023-01-19T05:46:40.377Z,3.49
2023-01-19T05:49:07.683Z,3.59
2023-01-19T05:51:37.984Z,3.56
2023-01-19T05:54:05.607Z,3.40
2023-01-19T05:56:32.943Z,3.42
2023-01-19T05:59:00.526Z,3.35
2023-01-19T06:01:27.518Z,3.39
2023-01-19T06:03:54.320Z,3.36
2023-01-19T06:06:21.010Z,3.37
2023-01-19T06:08:47.599Z,3.27
2023-01-19T06:11:14.105Z,3.20
2023-01-19T06:13:42.039Z,3.20
2023-01-19T06:16:09.317Z,3.27
2023-01-19T06:18:36.043Z,3.13
2023-01-19T06:21:07.578Z,3.06
2023-01-19T06:23:35.600Z,2.99
2023-01-19T06:26:02.465Z,2.89
2023-01-19T06:28:29.191Z,2.87
2023-01-19T06:30:56.689Z,2.91
2023-01-19T06:33:24.351Z,2.83
2023-01-19T06:35:51.907Z,2.73
2023-01-19T06:38:19.450Z,2.77
2023-01-19T06:40:52.548Z,2.75
2023-01-19T06:43:20.423Z,2.73
2023-01-19T06:45:47.338Z,2.71
2023-01-19T06:48:14.371Z,2.71
2023-01-19T06:50:40.917Z,2.58
2023-01-19T06:53:07.477Z,2.57
2023-01-19T06:55:36.506Z,2.60
2023-01-19T06:58:03.382Z,2.58
2023-01-19T07:00:30.356Z,2.51
2023-01-19T07:02:56.982Z,2.50
2023-01-19T07:05:23.766Z,2.48
2023-01-19T07:07:55.227Z,2.41
2023-01-19T07:10:22.702Z,2.30
2023-01-19T07:12:49.284Z,2.37
2023-01-19T07:15:17.824Z,2.33
2023-01-19T07:17:44.568Z,2.34
2023-01-19T07:20:14.458Z,2.40
2023-01-19T07:22:42.114Z,2.61
2023-01-19T07:25:09.282Z,2.83
2023-01-19T07:27:35.884Z,3.02
2023-01-19T07:30:02.525Z,3.23
2023-01-19T07:32:29.225Z,3.36
2023-01-19T07:34:55.945Z,3.47
2023-01-19T07:37:22.727Z,3.40
2023-01-19T07:39:49.232Z,3.47
2023-01-19T07:42:15.926Z,3.64
2023-01-19T07:44:42.466Z,3.73
2023-01-19T07:47:12.531Z,3.81
2023-01-19T07:49:39.657Z,3.97
2023-01-19T07:52:06.360Z,3.98
2023-01-19T07:54:33.283Z,4.05
2023-01-19T07:57:00.985Z,4.01
2023-01-19T07:59:30.246Z,3.94
2023-01-19T08:02:10.950Z,3.93
2023-01-19T08:04:37.545Z,3.88
2023-01-19T08:07:04.163Z,3.70
2023-01-19T08:09:30.716Z,3.63
2023-01-19T08:11:57.735Z,3.73
2023-01-19T08:14:24.327Z,3.93
2023-01-19T08:16:50.921Z,4.01
2023-01-19T08:19:19.283Z,4.04
2023-01-19T08:21:47.141Z,4.02
2023-01-19T08:24:22.922Z,4.09
2023-01-19T08:26:49.863Z,3.99
2023-01-19T08:29:16.502Z,4.04
2023-01-19T08:31:43.888Z,4.08
2023-01-19T08:34:10.565Z,4.19
2023-01-19T08:36:37.088Z,4.23
2023-01-19T08:39:03.786Z,4.16
2023-01-19T08:41:30.358Z,4.09
2023-01-19T08:43:56.947Z,4.09
2023-01-19T08:46:23.588Z,4.31
2023-01-19T08:48:50.439Z,4.60
2023-01-19T08:51:17.357Z,4.67
2023-01-19T08:53:44.078Z,4.80
2023-01-19T08:56:12.650Z,4.90
2023-01-19T08:58:40.391Z,5.17
2023-01-19T09:01:08.989Z,5.74
2023-01-19T09:03:36.649Z,6.03
2023-01-19T09:06:07.541Z,5.97
2023-01-19T09:08:34.355Z,6.18
2023-01-19T09:11:01.235Z,6.65
2023-01-19T09:13:27.915Z,7.07
2023-01-19T09:15:54.612Z,7.03
2023-01-19T09:18:22.780Z,7.87
2023-01-19T09:20:50.714Z,8.72
2023-01-19T09:23:20.207Z,9.36
2023-01-19T09:25:47.348Z,9.36
2023-01-19T09:28:15.604Z,10.10
2023-01-19T09:30:43.539Z,10.83
2023-01-19T09:33:12.735Z,10.64
2023-01-19T09:35:39.956Z,10.78
2023-01-19T09:38:10.671Z,10.73
2023-01-19T09:40:44.483Z,11.18
2023-01-19T09:43:14.138Z,11.53
2023-01-19T09:45:52.535Z,11.62
2023-01-19T09:48:22.069Z,12.00
2023-01-19T09:50:49.172Z,12.13
2023-01-19T09:53:39.061Z,12.16
2023-01-19T09:56:10.782Z,12.61
2023-01-19T09:58:37.391Z,12.63
2023-01-19T10:01:26.733Z,12.95
2023-01-19T10:04:22.371Z,12.42
2023-01-19T10:06:49.593Z,12.59
2023-01-19T10:09:30.537Z,12.68
2023-01-19T10:12:17.936Z,13.07
2023-01-19T10:15:01.610Z,12.45
2023-01-19T10:17:49.828Z,11.69
2023-01-19T10:20:42.125Z,12.49
2023-01-19T10:23:33.244Z,12.07
2023-01-19T10:26:07.948Z,12.86
2023-01-19T10:28:36.908Z,13.37
2023-01-19T10:31:06.291Z,12.88
2023-01-19T10:33:34.508Z,12.46
2023-01-19T10:36:17.056Z,13.37
2023-01-19T10:38:44.047Z,13.20
2023-01-19T10:41:42.728Z,13.26
2023-01-19T10:44:10.902Z,13.96
2023-01-19T10:46:49.029Z,13.36
2023-01-19T10:49:38.703Z,12.89
2023-01-19T10:52:07.292Z,12.01
2023-01-19T10:54:37.259Z,11.47
2023-01-19T10:57:07.569Z,11.34
2023-01-19T10:59:38.886Z,10.73
2023-01-19T11:02:44.449Z,10.70
2023-01-19T11:05:32.548Z,9.48
2023-01-19T11:07:59.412Z,9.52
2023-01-19T11:10:28.325Z,9.65
2023-01-19T11:13:16.039Z,8.57
2023-01-19T11:16:22.870Z,8.67
2023-01-19T11:18:53.529Z,9.02
2023-01-19T11:21:25.995Z,9.82
2023-01-19T11:24:05.499Z,9.37
2023-01-19T11:26:45.303Z,9.60
2023-01-19T11:29:18.726Z,9.68
2023-01-19T11:31:45.904Z,10.67
2023-01-19T11:34:32.867Z,10.91
2023-01-19T11:37:02.394Z,11.63
2023-01-19T11:39:31.265Z,11.97
2023-01-19T11:42:03.696Z,12.05
2023-01-19T11:44:36.567Z,11.84
2023-01-19T11:47:06.299Z,12.37
2023-01-19T11:49:56.983Z,12.89
2023-01-19T11:52:51.064Z,12.49
2023-01-19T11:55:22.138Z,13.00
2023-01-19T11:57:52.826Z,13.64
2023-01-19T12:00:35.643Z,14.04
2023-01-19T12:03:16.937Z,13.46
2023-01-19T12:05:52.779Z,12.93
2023-01-19T12:08:25.324Z,10.85
2023-01-19T12:10:54.200Z,9.94
2023-01-19T12:13:23.515Z,9.91
2023-01-19T12:16:05.740Z,12.13
2023-01-19T12:18:46.056Z,12.21
2023-01-19T12:21:12.750Z,12.65
2023-01-19T12:24:03.563Z,13.61
2023-01-19T12:26:46.851Z,13.02
2023-01-19T12:29:18.252Z,12.86
2023-01-19T12:31:44.869Z,13.71
2023-01-19T12:34:25.065Z,13.82
2023-01-19T12:36:52.561Z,14.46
2023-01-19T12:39:23.046Z,15.13
2023-01-19T12:42:11.584Z,15.91
2023-01-19T12:44:38.318Z,16.05
2023-01-19T12:47:10.719Z,15.19
2023-01-19T12:49:44.925Z,14.80
2023-01-19T12:52:33.970Z,13.69
2023-01-19T12:55:12.827Z,14.04
2023-01-19T12:57:58.477Z,13.64
2023-01-19T13:00:25.026Z,13.16
2023-01-19T13:02:52.863Z,12.24
2023-01-19T13:05:33.400Z,12.16
2023-01-19T13:08:03.222Z,11.79
2023-01-19T13:11:10.194Z,12.55
2023-01-19T13:14:04.684Z,12.80
2023-01-19T13:16:31.298Z,13.23
2023-01-19T13:19:02.743Z,13.10
2023-01-19T13:21:39.795Z,13.09
2023-01-19T13:24:10.931Z,11.35
2023-01-19T13:26:40.355Z,9.44
2023-01-19T13:29:33.083Z,8.17
2023-01-19T13:32:05.079Z,7.87
2023-01-19T13:34:41.954Z,7.79
2023-01-19T13:37:18.551Z,7.54
2023-01-19T13:39:50.130Z,7.43
2023-01-19T13:42:30.727Z,7.30
2023-01-19T13:45:05.533Z,6.95
2023-01-19T13:47:48.321Z,6.86
2023-01-19T13:50:28.170Z,6.50
2023-01-19T13:52:59.624Z,6.61
2023-01-19T13:55:34.844Z,6.49
2023-01-19T13:58:01.595Z,6.46
2023-01-19T14:00:30.792Z,6.37
2023-01-19T14:03:13.381Z,6.27
2023-01-19T14:05:41.870Z,6.22
2023-01-19T14:08:08.532Z,6.17
2023-01-19T14:10:36.780Z,6.14
2023-01-19T14:13:06.730Z,6.32
2023-01-19T14:15:34.808Z,6.45
2023-01-19T14:18:10.067Z,6.76
2023-01-19T14:20:37.173Z,6.66
2023-01-19T14:23:04.970Z,6.58
2023-01-19T14:25:34.057Z,6.48
2023-01-19T14:28:39.374Z,6.31
2023-01-19T14:31:24.086Z,6.16
2023-01-19T14:33:53.092Z,6.03
2023-01-19T14:36:39.377Z,6.01
2023-01-19T14:39:14.221Z,5.96
2023-01-19T14:41:48.159Z,5.89
2023-01-19T14:44:41.067Z,6.00
2023-01-19T14:47:26.191Z,5.86
2023-01-19T14:49:56.141Z,5.85
2023-01-19T14:52:34.578Z,5.80
2023-01-19T14:55:03.848Z,5.71
2023-01-19T14:57:30.450Z,5.60
2023-01-19T14:59:57.121Z,5.56
2023-01-19T15:02:23.958Z,5.50
2023-01-19T15:04:55.209Z,5.50
2023-01-19T15:07:23.745Z,5.46
2023-01-19T15:09:50.699Z,5.35
2023-01-19T15:12:18.645Z,5.42
2023-01-19T15:14:45.821Z,5.38
2023-01-19T15:17:27.490Z,5.45
2023-01-19T15:19:55.388Z,5.43
2023-01-19T15:22:25.109Z,5.39
2023-01-19T15:24:51.702Z,5.34
2023-01-19T15:27:18.327Z,5.29
2023-01-19T15:29:46.098Z,5.21
2023-01-19T15:32:14.202Z,5.39
2023-01-19T15:34:41.727Z,5.27
2023-01-19T15:37:08.799Z,5.14
2023-01-19T15:39:35.445Z,5.07
2023-01-19T15:42:02.158Z,4.98
2023-01-19T15:44:29.824Z,5.04
2023-01-19T15:46:57.420Z,5.04
2023-01-19T15:49:24.038Z,4.87
2023-01-19T15:51:50.580Z,4.81
2023-01-19T15:54:18.431Z,5.02
2023-01-19T15:56:45.056Z,4.95
2023-01-19T15:59:11.651Z,4.80
2023-01-19T16:01:39.900Z,4.77
2023-01-19T16:04:07.974Z,4.74
2023-01-19T16:06:34.694Z,4.81
2023-01-19T16:09:01.542Z,4.87
2023-01-19T16:11:33.633Z,4.77
2023-01-19T16:14:00.860Z,4.52
2023-01-19T16:16:28.474Z,4.59
2023-01-19T16:18:56.611Z,4.57
2023-01-19T16:21:23.883Z,4.57
2023-01-19T16:23:50.635Z,4.63
2023-01-19T16:26:29.938Z,4.62
2023-01-19T16:28:58.352Z,4.63
2023-01-19T16:31:25.162Z,4.64
2023-01-19T16:33:52.088Z,4.76
2023-01-19T16:36:30.902Z,4.71
2023-01-19T16:39:02.707Z,4.60
2023-01-19T16:41:29.720Z,4.53
2023-01-19T16:43:57.672Z,4.46
2023-01-19T16:46:30.503Z,4.32
2023-01-19T16:49:05.018Z,4.22
2023-01-19T16:51:32.628Z,4.21
2023-01-19T16:53:59.368Z,4.06
2023-01-19T16:56:25.884Z,4.04
2023-01-19T16:58:56.528Z,3.97
2023-01-19T17:01:24.502Z,3.90
2023-01-19T17:03:51.628Z,3.87
2023-01-19T17:06:20.372Z,3.77
2023-01-19T17:08:47.494Z,3.56
2023-01-19T17:11:20.838Z,3.37
2023-01-19T17:13:54.503Z,3.33
2023-01-19T17:16:22.355Z,3.18
2023-01-19T17:18:49.261Z,2.94
2023-01-19T17:21:17.980Z,3.01
2023-01-19T17:23:46.397Z,2.85
2023-01-19T17:26:13.235Z,2.85
2023-01-19T17:28:40.297Z,2.78
2023-01-19T17:31:20.277Z,2.87
2023-01-19T17:33:48.668Z,2.78
2023-01-19T17:36:21.098Z,2.73
2023-01-19T17:38:48.259Z,2.74
2023-01-19T17:41:15.668Z,2.71
2023-01-19T17:43:42.555Z,2.56
2023-01-19T17:46:09.701Z,2.48
2023-01-19T17:48:36.288Z,2.77
2023-01-19T17:51:19.120Z,2.73
2023-01-19T17:53:52.032Z,2.75
2023-01-19T17:56:28.385Z,2.83
2023-01-19T17:58:58.738Z,2.77
2023-01-19T18:01:31.121Z,2.74
2023-01-19T18:03:58.296Z,2.62
2023-01-19T18:06:25.026Z,2.83
2023-01-19T18:08:52.613Z,2.87
2023-01-19T18:11:20.651Z,2.89
2023-01-19T18:13:48.667Z,2.84
2023-01-19T18:16:18.580Z,2.91
2023-01-19T18:18:45.359Z,2.91
2023-01-19T18:21:14.514Z,2.94
2023-01-19T18:23:43.580Z,2.96
2023-01-19T18:26:15.643Z,2.98
2023-01-19T18:28:42.195Z,3.06
2023-01-19T18:31:13.004Z,3.04
2023-01-19T18:33:40.055Z,3.19
2023-01-19T18:36:07.404Z,3.16
2023-01-19T18:38:34.810Z,3.26
2023-01-19T18:41:06.754Z,3.12
2023-01-19T18:43:33.576Z,3.09
2023-01-19T18:46:00.325Z,3.05
2023-01-19T18:48:26.854Z,3.18
2023-01-19T18:50:54.030Z,3.13
2023-01-19T18:53:20.981Z,3.02
2023-01-19T18:55:55.988Z,2.96
2023-01-19T18:58:24.596Z,2.95
2023-01-19T19:00:51.233Z,2.75
2023-01-19T19:03:18.105Z,2.71
2023-01-19T19:05:44.818Z,2.62
2023-01-19T19:08:11.688Z,2.57
2023-01-19T19:10:41.030Z,2.56
2023-01-19T19:13:09.856Z,2.48
2023-01-19T19:15:36.376Z,2.38
2023-01-19T19:18:03.200Z,2.46
2023-01-19T19:20:29.783Z,2.43
2023-01-19T19:22:56.434Z,2.51
2023-01-19T19:25:23.234Z,2.65
2023-01-19T19:27:52.999Z,2.48
2023-01-19T19:30:20.805Z,2.50
2023-01-19T19:32:56.728Z,2.57
2023-01-19T19:35:23.812Z,2.84
2023-01-19T19:37:51.531Z,2.96
2023-01-19T19:40:18.224Z,3.01
2023-01-19T19:42:44.812Z,3.01
2023-01-19T19:45:12.026Z,2.94
2023-01-19T19:47:38.593Z,2.99
2023-01-19T19:50:05.414Z,3.02
2023-01-19T19:52:32.126Z,3.11
2023-01-19T19:54:58.734Z,3.18
2023-01-19T19:57:25.417Z,3.36
2023-01-19T19:59:51.929Z,3.06
2023-01-19T20:02:18.521Z,2.99
2023-01-19T20:04:45.309Z,3.12
2023-01-19T20:07:12.006Z,3.11
2023-01-19T20:09:38.940Z,3.19
2023-01-19T20:12:05.859Z,3.32
2023-01-19T20:14:32.393Z,3.36
2023-01-19T20:16:59.092Z,3.35
2023-01-19T20:19:25.624Z,3.33
2023-01-19T20:21:52.288Z,3.09
2023-01-19T20:24:21.578Z,3.20
2023-01-19T20:26:51.656Z,3.12
2023-01-19T20:29:19.229Z,2.77
2023-01-19T20:31:51.873Z,2.48
2023-01-19T20:34:20.812Z,2.26
2023-01-19T20:36:49.699Z,2.13
2023-01-19T20:39:17.639Z,2.01
2023-01-19T20:41:45.133Z,1.91
2023-01-19T20:44:18.844Z,1.68
2023-01-19T20:46:46.093Z,1.69
2023-01-19T20:49:12.966Z,1.74
2023-01-19T20:51:43.436Z,1.74
2023-01-19T20:54:12.283Z,1.62
2023-01-19T20:56:41.100Z,1.67
2023-01-19T20:59:09.291Z,1.75
2023-01-19T21:01:36.831Z,1.67
2023-01-19T21:04:03.653Z,1.98
2023-01-19T21:06:30.358Z,1.78
2023-01-19T21:08:57.617Z,1.72
2023-01-19T21:11:25.896Z,1.75
2023-01-19T21:13:56.042Z,1.75
2023-01-19T21:16:25.642Z,1.98
2023-01-19T21:18:52.933Z,2.02
2023-01-19T21:21:29.933Z,2.03
2023-01-19T21:23:59.622Z,1.95
2023-01-19T21:26:26.270Z,2.02
2023-01-19T21:28:52.911Z,2.02
2023-01-19T21:31:22.603Z,2.01
2023-01-19T21:33:53.383Z,2.12
2023-01-19T21:36:21.152Z,1.94
2023-01-19T21:38:47.666Z,1.92
2023-01-19T21:41:16.326Z,1.83
2023-01-19T21:43:43.291Z,1.83
2023-01-19T21:46:14.422Z,1.79
2023-01-19T21:48:42.150Z,1.75
2023-01-19T21:51:08.843Z,1.81
2023-01-19T21:53:35.573Z,1.78
2023-01-19T21:56:02.144Z,1.78
2023-01-19T21:58:28.697Z,1.75
2023-01-19T22:01:03.660Z,1.79
2023-01-19T22:03:31.084Z,1.72
2023-01-19T22:06:03.875Z,1.77
2023-01-19T22:08:30.434Z,1.78
2023-01-19T22:10:57.009Z,1.79
2023-01-19T22:13:23.553Z,1.81
2023-01-19T22:15:50.083Z,1.82
2023-01-19T22:18:16.597Z,1.82
2023-01-19T22:20:43.176Z,1.89
2023-01-19T22:23:10.271Z,1.78
2023-01-19T22:25:36.827Z,1.62
2023-01-19T22:28:03.445Z,1.67
2023-01-19T22:30:30.077Z,1.52
2023-01-19T22:32:56.695Z,1.51
2023-01-19T22:35:23.303Z,1.51
2023-01-19T22:37:49.913Z,1.61
2023-01-19T22:40:16.901Z,1.54
2023-01-19T22:42:47.261Z,1.43
2023-01-19T22:45:15.342Z,1.29
2023-01-19T22:47:42.182Z,1.22
2023-01-19T22:50:09.315Z,1.22
2023-01-19T22:52:35.863Z,1.26
2023-01-19T22:55:02.404Z,1.24
2023-01-19T22:57:34.312Z,1.26
